Time;durP1;ratioP1;P1;durP2;ratioP2;P2;SDS_P1;SDS_P2;PMS_P1;PMS_P2;Temp;Humidity;BMP_temperature;BMP_pressure;BME280_temperature;BME280_humidity;BME280_pressure;Samples;Min_cycle;Max_cycle;Signal;HPM_P1;HPM_P2
2023/12/09 00:01:19;;;;;;;85.93;36.10;;;7.40;99.90;;;;;;5042887;28;20440;-82
2023/12/09 00:03:45;;;;;;;96.27;38.60;;;7.40;99.90;;;;;;5029058;28;20067;-82
2023/12/09 00:06:11;;;;;;;88.43;37.33;;;7.50;99.90;;;;;;5041502;28;20040;-81
2023/12/09 00:08:36;;;;;;;82.53;34.50;;;7.50;99.90;;;;;;5028137;28;20051;-82
2023/12/09 00:11:02;;;;;;;91.73;36.10;;;7.50;99.90;;;;;;5027779;28;20029;-81
2023/12/09 00:13:28;;;;;;;94.30;37.03;;;7.50;99.90;;;;;;5040682;28;20556;-82
2023/12/09 00:15:54;;;;;;;87.17;36.93;;;7.50;99.90;;;;;;5061103;28;20070;-82
2023/12/09 00:18:19;;;;;;;82.63;33.40;;;7.50;99.90;;;;;;5012492;28;20138;-82
2023/12/09 00:20:45;;;;;;;89.83;35.60;;;7.50;99.90;;;;;;5043732;28;20049;-82
2023/12/09 00:23:11;;;;;;;85.67;35.60;;;7.50;99.90;;;;;;5041151;28;20067;-82
2023/12/09 00:25:37;;;;;;;87.47;36.10;;;7.50;99.90;;;;;;5028267;28;20454;-82
2023/12/09 00:28:03;;;;;;;73.17;30.77;;;7.50;99.90;;;;;;5025408;28;20173;-82
2023/12/09 00:30:28;;;;;;;76.00;32.53;;;7.50;99.90;;;;;;5029871;28;20058;-82
2023/12/09 00:32:54;;;;;;;89.30;32.60;;;7.50;99.90;;;;;;5027133;28;20490;-82
2023/12/09 00:35:20;;;;;;;74.03;30.97;;;7.50;99.90;;;;;;5040011;28;20052;-82
2023/12/09 00:37:47;;;;;;;77.27;33.53;;;7.60;99.90;;;;;;5045990;28;20044;-82
2023/12/09 00:40:12;;;;;;;87.03;33.10;;;7.60;99.90;;;;;;5026041;28;20125;-82
2023/12/09 00:42:38;;;;;;;87.00;31.67;;;7.50;99.90;;;;;;5042879;28;20109;-82
2023/12/09 00:45:05;;;;;;;91.93;33.97;;;7.50;99.90;;;;;;5025403;28;20381;-82
2023/12/09 00:47:31;;;;;;;78.97;33.87;;;7.50;99.90;;;;;;5025755;28;20537;-82
2023/12/09 00:49:56;;;;;;;79.10;32.13;;;7.50;99.90;;;;;;5027516;28;20032;-82
2023/12/09 00:52:22;;;;;;;76.77;32.47;;;7.50;99.90;;;;;;5026827;28;20519;-82
2023/12/09 00:54:48;;;;;;;74.07;33.00;;;7.60;99.90;;;;;;5026448;28;20044;-82
2023/12/09 00:57:14;;;;;;;71.27;31.23;;;7.60;99.90;;;;;;5060141;28;20063;-82
2023/12/09 00:59:40;;;;;;;84.10;31.83;;;7.60;99.90;;;;;;5060872;28;20368;-82
2023/12/09 01:02:05;;;;;;;69.03;31.93;;;7.60;99.90;;;;;;5059912;28;20046;-81
2023/12/09 01:04:31;;;;;;;70.57;29.63;;;7.60;99.90;;;;;;5025567;28;20047;-81
2023/12/09 01:06:57;;;;;;;67.77;29.90;;;7.60;99.90;;;;;;5008798;28;20037;-82
2023/12/09 01:09:23;;;;;;;72.37;32.40;;;7.60;99.90;;;;;;5040141;28;20037;-82
2023/12/09 01:11:48;;;;;;;75.33;30.53;;;7.60;99.90;;;;;;5042744;28;20047;-82
2023/12/09 01:14:14;;;;;;;74.23;31.23;;;7.60;99.90;;;;;;5059404;28;20455;-82
2023/12/09 01:16:40;;;;;;;71.97;30.47;;;7.70;99.90;;;;;;5054070;28;20080;-82
2023/12/09 01:19:06;;;;;;;75.13;31.50;;;7.60;99.90;;;;;;5037722;28;20425;-82
2023/12/09 01:21:32;;;;;;;65.67;29.70;;;7.60;99.90;;;;;;5040473;28;20086;-82
2023/12/09 01:23:58;;;;;;;75.57;33.20;;;7.60;99.90;;;;;;5024659;28;20037;-82
2023/12/09 01:26:23;;;;;;;71.70;29.50;;;7.60;99.90;;;;;;5025791;28;20495;-82
2023/12/09 01:28:49;;;;;;;62.80;29.97;;;7.60;99.90;;;;;;5024263;28;20048;-82
2023/12/09 01:31:15;;;;;;;75.60;32.20;;;7.60;99.90;;;;;;5056599;28;20059;-81
2023/12/09 01:33:41;;;;;;;69.33;29.80;;;7.60;99.90;;;;;;5026437;28;20368;-82
2023/12/09 01:36:07;;;;;;;74.70;32.33;;;7.60;99.90;;;;;;5041556;28;20029;-82
2023/12/09 01:38:34;;;;;;;58.73;27.17;;;7.60;99.90;;;;;;5059036;28;20475;-82
2023/12/09 01:41:00;;;;;;;69.37;31.07;;;7.60;99.90;;;;;;5042789;28;20044;-82
2023/12/09 01:43:26;;;;;;;60.20;29.17;;;7.60;99.90;;;;;;5024104;28;20047;-82
2023/12/09 01:45:55;;;;;;;71.57;31.20;;;7.60;99.90;;;;;;5037398;28;20032;-82
2023/12/09 01:48:22;;;;;;;70.53;31.33;;;7.60;99.90;;;;;;5043229;28;20449;-81
2023/12/09 01:50:48;;;;;;;71.90;32.00;;;7.60;99.90;;;;;;5023522;28;20471;-82
2023/12/09 01:53:14;;;;;;;65.30;29.50;;;7.60;99.90;;;;;;5026692;28;20036;-81
2023/12/09 01:55:41;;;;;;;62.57;29.73;;;7.60;99.90;;;;;;5042153;28;20044;-82
2023/12/09 01:58:08;;;;;;;73.33;29.83;;;7.60;99.90;;;;;;5025374;28;20044;-82
2023/12/09 02:00:34;;;;;;;67.60;29.93;;;7.60;99.90;;;;;;5023463;28;20114;-82
2023/12/09 02:03:00;;;;;;;69.13;29.03;;;7.60;99.90;;;;;;5024677;28;20523;-82
2023/12/09 02:05:27;;;;;;;71.03;31.73;;;7.70;99.90;;;;;;5043599;28;20032;-82
2023/12/09 02:07:53;;;;;;;69.50;30.33;;;7.70;99.90;;;;;;5042198;28;20121;-82
2023/12/09 02:10:19;;;;;;;65.50;29.77;;;7.60;99.90;;;;;;5043992;28;20542;-82
2023/12/09 02:13:12;;;;;;;62.93;27.73;;;7.60;99.90;;;;;;5058885;28;20043;-82
2023/12/09 02:15:42;;;;;;;57.93;27.63;;;7.70;99.90;;;;;;5032468;28;20048;-82
2023/12/09 02:18:08;;;;;;;71.77;30.90;;;7.70;99.90;;;;;;5038184;28;20404;-82
2023/12/09 02:20:34;;;;;;;60.37;28.43;;;7.60;99.90;;;;;;5036684;28;20037;-82
2023/12/09 02:23:04;;;;;;;64.27;28.97;;;7.70;99.90;;;;;;5036697;28;20044;-82
2023/12/09 02:25:30;;;;;;;64.67;27.37;;;7.60;99.90;;;;;;5037296;28;20041;-83
2023/12/09 02:28:00;;;;;;;67.57;29.23;;;7.60;99.90;;;;;;5021562;28;20042;-82
2023/12/09 02:30:41;;;;;;;68.13;28.80;;;7.60;99.90;;;;;;5039364;28;20079;-82
2023/12/09 02:33:08;;;;;;;60.97;27.57;;;7.60;99.90;;;;;;5035643;28;20041;-83
2023/12/09 02:35:37;;;;;;;60.17;27.97;;;7.60;99.90;;;;;;5038731;28;20075;-82
2023/12/09 02:38:04;;;;;;;61.83;26.30;;;7.70;99.90;;;;;;5040373;28;20058;-82
2023/12/09 02:40:31;;;;;;;64.53;27.90;;;7.60;99.90;;;;;;5006968;28;20366;-82
2023/12/09 02:42:56;;;;;;;60.37;26.53;;;7.70;99.90;;;;;;5025136;28;20076;-82
2023/12/09 02:45:22;;;;;;;57.83;27.87;;;7.70;99.90;;;;;;5014756;28;20080;-82
2023/12/09 02:47:48;;;;;;;64.07;27.93;;;7.70;99.90;;;;;;5038453;28;20556;-82
2023/12/09 02:50:14;;;;;;;55.80;25.80;;;7.70;99.90;;;;;;5035448;28;20112;-82
2023/12/09 02:52:41;;;;;;;67.03;27.30;;;7.80;99.90;;;;;;5037266;28;20115;-82
2023/12/09 02:55:07;;;;;;;68.57;26.87;;;7.70;99.90;;;;;;5037812;28;20049;-81
2023/12/09 02:57:34;;;;;;;59.37;24.90;;;7.70;99.90;;;;;;5035705;28;20052;-81
2023/12/09 03:00:00;;;;;;;50.97;24.17;;;7.70;99.90;;;;;;5040776;28;20086;-81
2023/12/09 03:02:25;;;;;;;60.03;26.30;;;7.70;99.90;;;;;;5018731;28;20067;-80
2023/12/09 03:04:51;;;;;;;55.50;24.77;;;7.70;99.90;;;;;;5035291;28;20099;-80
2023/12/09 03:07:20;;;;;;;56.70;25.07;;;7.70;99.90;;;;;;5037899;28;20553;-80
2023/12/09 03:09:47;;;;;;;53.90;23.70;;;7.70;99.90;;;;;;5055455;28;20507;-80
2023/12/09 03:12:12;;;;;;;57.27;26.30;;;7.80;99.90;;;;;;5036114;28;20115;-80
2023/12/09 03:14:38;;;;;;;59.93;26.13;;;7.80;99.90;;;;;;5039208;28;20180;-80
2023/12/09 03:17:05;;;;;;;58.03;25.13;;;7.80;99.90;;;;;;5038792;28;20045;-80
2023/12/09 03:19:31;;;;;;;60.50;25.83;;;7.80;99.90;;;;;;5053513;28;20124;-80
2023/12/09 03:21:57;;;;;;;54.93;24.90;;;7.70;99.90;;;;;;5019501;28;20041;-80
2023/12/09 03:24:23;;;;;;;59.63;25.57;;;7.70;99.90;;;;;;5019895;28;20537;-80
2023/12/09 03:26:52;;;;;;;60.47;23.83;;;7.70;99.90;;;;;;5039531;28;20037;-81
2023/12/09 03:29:18;;;;;;;55.93;23.87;;;7.80;99.90;;;;;;5034966;28;20041;-80
2023/12/09 03:31:44;;;;;;;53.20;23.57;;;7.80;99.90;;;;;;5026129;28;20066;-80
2023/12/09 03:34:11;;;;;;;54.73;24.07;;;7.80;99.90;;;;;;5007320;28;20138;-81
2023/12/09 03:36:37;;;;;;;54.97;22.67;;;7.80;99.90;;;;;;5040194;28;20036;-81
2023/12/09 03:39:03;;;;;;;55.90;24.03;;;7.80;99.90;;;;;;5025430;28;20025;-80
2023/12/09 03:41:29;;;;;;;51.77;23.67;;;7.80;99.90;;;;;;5022483;28;20091;-80
2023/12/09 03:43:55;;;;;;;52.30;22.97;;;7.80;99.90;;;;;;5026607;28;20037;-81
2023/12/09 03:46:21;;;;;;;42.90;21.93;;;7.80;99.90;;;;;;5041302;28;20041;-80
2023/12/09 03:48:47;;;;;;;45.33;19.90;;;7.80;99.90;;;;;;5026251;28;20037;-81
2023/12/09 03:51:13;;;;;;;45.10;21.60;;;7.80;99.90;;;;;;5043509;28;20044;-81
2023/12/09 03:53:41;;;;;;;43.03;19.43;;;7.80;99.90;;;;;;5060641;28;20040;-80
2023/12/09 03:56:07;;;;;;;48.60;21.63;;;7.70;99.90;;;;;;5060343;28;20395;-80
2023/12/09 03:58:33;;;;;;;48.77;20.37;;;7.80;99.90;;;;;;5037250;28;20041;-81
2023/12/09 04:00:59;;;;;;;47.97;19.77;;;7.70;99.90;;;;;;5020551;28;20048;-80
2023/12/09 04:03:27;;;;;;;50.80;20.87;;;7.80;99.90;;;;;;5041213;28;20132;-80
2023/12/09 04:05:52;;;;;;;47.97;19.80;;;7.80;99.90;;;;;;5042662;28;20036;-80
2023/12/09 04:08:18;;;;;;;51.63;19.20;;;7.70;99.90;;;;;;5038638;28;20041;-80
2023/12/09 04:10:44;;;;;;;48.77;19.73;;;7.70;99.90;;;;;;5040008;28;20058;-85
2023/12/09 04:13:13;;;;;;;49.50;20.97;;;7.80;99.90;;;;;;5040913;28;20469;-83
2023/12/09 04:15:38;;;;;;;51.57;21.10;;;7.70;99.90;;;;;;5024342;28;20060;-82
2023/12/09 04:18:05;;;;;;;47.10;20.53;;;7.70;99.90;;;;;;5007202;28;20037;-83
2023/12/09 04:20:31;;;;;;;40.93;18.67;;;7.70;99.90;;;;;;5022393;28;20063;-82
2023/12/09 04:22:57;;;;;;;49.97;19.93;;;7.70;99.90;;;;;;5024823;28;20139;-83
2023/12/09 04:25:24;;;;;;;42.00;18.00;;;7.70;99.90;;;;;;5020645;28;20041;-86
2023/12/09 04:27:50;;;;;;;51.30;19.57;;;7.70;99.90;;;;;;5021518;28;20070;-88
2023/12/09 04:30:16;;;;;;;44.60;19.07;;;7.70;99.90;;;;;;5035549;28;20116;-85
2023/12/09 04:32:42;;;;;;;44.10;18.53;;;7.70;99.90;;;;;;5004942;28;20116;-83
2023/12/09 04:35:08;;;;;;;42.70;18.80;;;7.80;99.90;;;;;;5037627;28;20037;-85
2023/12/09 04:37:34;;;;;;;46.30;18.23;;;7.70;99.90;;;;;;4988194;28;20076;-89
2023/12/09 04:40:00;;;;;;;43.60;18.17;;;7.70;99.90;;;;;;5036806;28;20036;-86
2023/12/09 04:42:27;;;;;;;43.00;18.03;;;7.80;99.90;;;;;;5037118;28;20037;-86
2023/12/09 04:44:53;;;;;;;39.80;18.10;;;7.80;99.90;;;;;;4991249;28;20039;-83
2023/12/09 04:47:19;;;;;;;41.33;18.13;;;7.70;99.90;;;;;;5038118;28;20045;-81
2023/12/09 04:49:45;;;;;;;45.50;18.30;;;7.70;99.90;;;;;;5020991;28;20034;-87
2023/12/09 04:52:11;;;;;;;46.47;18.33;;;7.80;99.90;;;;;;5018695;28;20487;-84
2023/12/09 04:54:36;;;;;;;37.20;17.73;;;7.80;99.90;;;;;;4985827;28;20041;-84
2023/12/09 04:57:02;;;;;;;40.20;18.13;;;7.70;99.90;;;;;;5003457;28;20029;-83
2023/12/09 04:59:28;;;;;;;43.10;17.87;;;7.70;99.90;;;;;;4989870;28;20052;-88
2023/12/09 05:01:54;;;;;;;43.10;18.07;;;7.70;99.90;;;;;;5007149;28;20045;-84
2023/12/09 05:04:20;;;;;;;40.20;18.90;;;7.70;99.90;;;;;;4987480;28;20049;-84
2023/12/09 05:06:45;;;;;;;41.53;17.50;;;7.70;99.90;;;;;;5004909;28;20742;-85
2023/12/09 05:09:12;;;;;;;36.73;15.33;;;7.70;99.90;;;;;;5021440;28;20045;-83
2023/12/09 05:11:37;;;;;;;34.17;15.37;;;7.70;99.90;;;;;;5020258;28;20080;-84
2023/12/09 05:14:03;;;;;;;36.40;17.53;;;7.70;99.90;;;;;;5025239;28;20083;-83
2023/12/09 05:16:29;;;;;;;39.27;16.97;;;7.70;99.90;;;;;;5028047;28;20468;-85
2023/12/09 05:18:55;;;;;;;47.33;17.60;;;7.70;99.90;;;;;;5036399;28;20049;-85
2023/12/09 05:21:21;;;;;;;42.50;17.90;;;7.70;99.90;;;;;;5050164;28;20045;-84
2023/12/09 05:23:47;;;;;;;45.67;18.30;;;7.70;99.90;;;;;;5039212;28;20067;-83
2023/12/09 05:26:27;;;;;;;38.00;16.80;;;7.70;99.90;;;;;;5037259;28;20037;-87
2023/12/09 05:28:54;;;;;;;47.07;17.23;;;7.70;99.90;;;;;;5040330;28;20112;-82
2023/12/09 05:31:20;;;;;;;48.97;17.53;;;7.70;99.90;;;;;;5019088;28;20228;-84
2023/12/09 05:33:46;;;;;;;37.63;16.37;;;7.70;99.90;;;;;;5039963;28;20060;-82
2023/12/09 05:36:12;;;;;;;42.03;17.07;;;7.70;99.90;;;;;;5057099;28;20532;-86
2023/12/09 05:38:38;;;;;;;38.57;17.47;;;7.70;99.90;;;;;;5038793;28;20127;-86
2023/12/09 05:41:07;;;;;;;37.90;16.63;;;7.70;99.90;;;;;;5052305;28;20079;-84
2023/12/09 05:43:35;;;;;;;47.73;18.27;;;7.70;99.90;;;;;;5024075;28;20115;-82
2023/12/09 05:46:01;;;;;;;44.87;17.10;;;7.70;99.90;;;;;;5040412;28;20032;-83
2023/12/09 05:48:27;;;;;;;41.07;17.30;;;7.70;99.90;;;;;;5027026;28;20114;-84
2023/12/09 05:50:52;;;;;;;46.13;17.90;;;7.60;99.90;;;;;;5022222;28;20366;-83
2023/12/09 05:53:18;;;;;;;38.50;17.33;;;7.70;99.90;;;;;;5026234;28;20048;-81
2023/12/09 05:55:44;;;;;;;42.50;17.93;;;7.70;99.90;;;;;;5039009;28;20104;-87
2023/12/09 05:58:10;;;;;;;45.47;19.73;;;7.70;99.90;;;;;;5038773;28;20076;-82
2023/12/09 06:00:35;;;;;;;43.27;17.70;;;7.70;99.90;;;;;;5037982;28;20044;-85
2023/12/09 06:03:01;;;;;;;38.40;19.43;;;7.70;99.90;;;;;;5038258;28;20049;-88
2023/12/09 06:05:27;;;;;;;43.60;18.30;;;7.70;99.90;;;;;;5022283;28;20089;-80
2023/12/09 06:07:53;;;;;;;46.07;18.67;;;7.70;99.90;;;;;;5039711;28;20500;-85
2023/12/09 06:10:18;;;;;;;40.27;17.77;;;7.70;99.90;;;;;;5052785;28;20119;-84
2023/12/09 06:12:44;;;;;;;43.13;18.33;;;7.70;99.90;;;;;;5021108;28;20628;-82
2023/12/09 06:15:10;;;;;;;37.30;17.63;;;7.60;99.90;;;;;;5021968;28;20135;-85
2023/12/09 06:17:36;;;;;;;41.47;17.73;;;7.60;99.90;;;;;;5039399;28;20056;-81
2023/12/09 06:20:01;;;;;;;38.17;16.97;;;7.60;99.90;;;;;;5024434;28;20121;-88
2023/12/09 06:22:27;;;;;;;40.23;17.10;;;7.60;99.90;;;;;;5039609;28;20033;-85
2023/12/09 06:24:53;;;;;;;38.77;16.80;;;7.50;99.90;;;;;;5006384;28;20120;-82
2023/12/09 06:27:19;;;;;;;32.80;16.73;;;7.50;99.90;;;;;;5016412;28;20043;-85
2023/12/09 06:29:48;;;;;;;38.70;16.30;;;7.50;99.90;;;;;;5039305;28;20124;-82
2023/12/09 06:32:14;;;;;;;41.30;17.30;;;7.50;99.90;;;;;;5036559;28;20040;-83
2023/12/09 06:34:39;;;;;;;35.90;16.40;;;7.50;99.90;;;;;;5035074;28;20491;-85
2023/12/09 06:37:05;;;;;;;35.07;16.53;;;7.50;99.90;;;;;;5040027;28;20045;-84
2023/12/09 06:39:30;;;;;;;37.07;16.17;;;7.50;99.90;;;;;;5000162;28;20047;-84
2023/12/09 06:41:56;;;;;;;37.93;16.03;;;7.50;99.90;;;;;;5039442;28;20044;-82
2023/12/09 06:44:22;;;;;;;39.17;16.30;;;7.50;99.90;;;;;;5020111;28;20527;-83
2023/12/09 06:46:47;;;;;;;36.77;16.47;;;7.50;99.90;;;;;;5034252;28;20080;-83
2023/12/09 06:49:13;;;;;;;34.43;15.77;;;7.50;99.90;;;;;;5033466;28;20040;-84
2023/12/09 06:51:43;;;;;;;32.13;15.57;;;7.50;99.90;;;;;;5022232;28;20115;-87
2023/12/09 06:54:10;;;;;;;42.10;16.67;;;7.50;99.90;;;;;;5018243;28;20055;-82
2023/12/09 06:56:36;;;;;;;39.40;16.33;;;7.50;99.90;;;;;;5018191;28;20040;-81
2023/12/09 06:59:02;;;;;;;33.50;14.53;;;7.50;99.90;;;;;;5018284;28;20044;-81
2023/12/09 07:01:28;;;;;;;37.27;15.83;;;7.50;99.90;;;;;;5036643;28;20440;-83
2023/12/09 07:03:54;;;;;;;37.50;15.50;;;7.50;99.90;;;;;;5036273;28;20076;-83
2023/12/09 07:06:27;;;;;;;30.80;14.37;;;7.50;99.90;;;;;;5021369;28;20044;-82
2023/12/09 07:08:54;;;;;;;31.73;14.00;;;7.40;99.90;;;;;;5034428;28;20075;-81
2023/12/09 07:11:21;;;;;;;41.67;14.80;;;7.50;99.90;;;;;;5052930;28;20039;-82
2023/12/09 07:13:47;;;;;;;30.97;14.03;;;7.50;99.90;;;;;;5041941;28;20167;-84
2023/12/09 07:16:13;;;;;;;34.13;15.30;;;7.40;99.90;;;;;;5043893;28;20145;-82
2023/12/09 07:18:43;;;;;;;32.87;14.57;;;7.40;99.90;;;;;;5026255;28;20102;-81
2023/12/09 07:21:13;;;;;;;33.63;14.70;;;7.40;99.90;;;;;;5041553;28;20067;-81
2023/12/09 07:23:38;;;;;;;31.10;14.23;;;7.40;99.90;;;;;;5025932;28;20040;-83
2023/12/09 07:26:04;;;;;;;33.87;14.60;;;7.40;99.90;;;;;;5036843;28;20077;-81
2023/12/09 07:28:30;;;;;;;34.57;13.93;;;7.40;99.90;;;;;;5025734;28;20040;-83
2023/12/09 07:30:56;;;;;;;37.87;14.97;;;7.40;99.90;;;;;;5022743;28;20043;-83
2023/12/09 07:33:23;;;;;;;33.80;14.60;;;7.40;99.90;;;;;;5036669;28;20545;-85
2023/12/09 07:35:49;;;;;;;34.83;13.63;;;7.40;99.90;;;;;;5049815;28;20131;-86
2023/12/09 07:38:15;;;;;;;30.40;13.43;;;7.40;99.90;;;;;;5033355;28;20087;-83
2023/12/09 07:40:41;;;;;;;26.77;11.90;;;7.40;99.90;;;;;;5052823;28;20487;-81
2023/12/09 07:43:07;;;;;;;28.63;12.17;;;7.40;99.90;;;;;;5049969;28;20082;-84
2023/12/09 07:45:33;;;;;;;28.73;12.20;;;7.40;99.90;;;;;;5051663;28;20174;-80
2023/12/09 07:47:59;;;;;;;28.20;12.10;;;7.40;99.90;;;;;;5019709;28;20052;-84
2023/12/09 07:50:25;;;;;;;27.07;11.87;;;7.50;99.90;;;;;;5014038;28;20055;-83
2023/12/09 07:52:50;;;;;;;28.50;11.43;;;7.50;99.90;;;;;;5039308;28;20041;-82
2023/12/09 07:55:16;;;;;;;30.23;12.03;;;7.40;99.90;;;;;;5056446;28;20040;-83
2023/12/09 07:57:42;;;;;;;35.80;11.23;;;7.40;99.90;;;;;;5037904;28;20044;-83
2023/12/09 08:00:09;;;;;;;29.07;11.87;;;7.40;99.90;;;;;;5048124;28;20045;-82
2023/12/09 08:02:35;;;;;;;28.07;12.30;;;7.40;99.90;;;;;;5018883;28;20036;-83
2023/12/09 08:05:01;;;;;;;27.73;11.17;;;7.40;99.90;;;;;;5019794;28;20502;-84
2023/12/09 08:07:27;;;;;;;25.10;11.37;;;7.40;99.90;;;;;;5036432;28;20044;-82
2023/12/09 08:09:53;;;;;;;29.53;11.47;;;7.30;99.90;;;;;;5057763;28;20123;-82
2023/12/09 08:12:18;;;;;;;29.33;9.77;;;7.40;99.90;;;;;;5020843;28;20047;-82
2023/12/09 08:14:44;;;;;;;30.07;9.83;;;7.40;99.90;;;;;;5019958;28;20052;-81
2023/12/09 08:17:10;;;;;;;28.50;10.13;;;7.40;99.90;;;;;;5042119;28;20060;-82
2023/12/09 08:19:35;;;;;;;21.97;9.63;;;7.40;99.90;;;;;;5051702;28;20041;-82
2023/12/09 08:22:02;;;;;;;24.97;8.70;;;7.30;99.90;;;;;;5039774;28;20036;-82
2023/12/09 08:24:28;;;;;;;17.83;8.80;;;7.30;99.90;;;;;;5026125;28;20047;-84
2023/12/09 08:26:54;;;;;;;21.67;8.43;;;7.40;99.90;;;;;;5044795;28;20097;-82
2023/12/09 08:29:21;;;;;;;22.97;8.43;;;7.30;99.90;;;;;;5045356;28;20040;-81
2023/12/09 08:31:49;;;;;;;21.73;8.30;;;7.30;99.90;;;;;;5055111;28;20141;-82
2023/12/09 08:34:18;;;;;;;23.60;8.03;;;7.30;99.90;;;;;;5062116;28;20400;-82
2023/12/09 08:36:44;;;;;;;20.03;8.17;;;7.20;99.90;;;;;;5038813;28;20396;-82
2023/12/09 08:39:10;;;;;;;19.30;6.97;;;7.20;99.90;;;;;;5023693;28;20097;-82
2023/12/09 08:41:37;;;;;;;17.87;6.57;;;7.30;99.90;;;;;;5018853;28;20036;-82
2023/12/09 08:44:03;;;;;;;25.47;7.27;;;7.30;99.90;;;;;;5016132;28;20526;-82
2023/12/09 08:46:30;;;;;;;24.90;7.47;;;7.20;99.90;;;;;;5035822;28;20032;-82
2023/12/09 08:48:56;;;;;;;20.57;7.30;;;7.10;99.90;;;;;;5019673;28;20047;-83
2023/12/09 08:51:22;;;;;;;20.93;7.33;;;7.10;99.90;;;;;;5052016;28;20043;-83
2023/12/09 08:53:50;;;;;;;21.63;6.67;;;7.10;99.90;;;;;;5058471;28;20558;-82
2023/12/09 08:56:16;;;;;;;20.67;6.67;;;7.10;99.90;;;;;;5053055;28;20059;-85
2023/12/09 08:58:42;;;;;;;26.00;6.97;;;7.20;99.90;;;;;;5055204;28;20063;-83
2023/12/09 09:01:08;;;;;;;22.70;7.83;;;7.20;99.90;;;;;;5026369;28;20157;-83
2023/12/09 09:03:33;;;;;;;25.80;8.47;;;7.30;99.90;;;;;;5023187;28;20461;-81
2023/12/09 09:05:59;;;;;;;20.07;6.53;;;7.20;99.90;;;;;;5044342;28;20120;-81
2023/12/09 09:08:25;;;;;;;20.30;8.00;;;7.20;99.90;;;;;;5028804;28;20044;-86
2023/12/09 09:10:51;;;;;;;22.20;7.57;;;7.30;99.90;;;;;;5061871;28;20483;-83
2023/12/09 09:13:17;;;;;;;16.63;6.57;;;7.30;99.90;;;;;;5021828;28;20045;-83
2023/12/09 09:15:42;;;;;;;17.97;5.70;;;7.40;99.90;;;;;;5043982;28;20581;-83
2023/12/09 09:18:08;;;;;;;20.97;6.10;;;7.40;99.90;;;;;;5039319;28;20067;-82
2023/12/09 09:20:34;;;;;;;19.53;6.33;;;7.40;99.90;;;;;;5019853;28;20051;-84
2023/12/09 09:23:00;;;;;;;16.10;5.13;;;7.40;99.90;;;;;;5051212;28;20043;-82
2023/12/09 09:25:26;;;;;;;15.60;5.77;;;7.50;99.90;;;;;;5023079;28;20050;-82
2023/12/09 09:27:52;;;;;;;17.07;5.67;;;7.60;99.90;;;;;;5035776;28;20053;-84
2023/12/09 09:30:19;;;;;;;16.77;5.37;;;7.60;99.90;;;;;;5032798;28;20688;-84
2023/12/09 09:32:46;;;;;;;18.00;5.50;;;7.60;99.90;;;;;;5052653;28;20047;-82
2023/12/09 09:35:12;;;;;;;15.47;4.70;;;7.70;99.90;;;;;;5037352;28;20048;-81
2023/12/09 09:37:38;;;;;;;16.87;5.20;;;7.70;99.90;;;;;;5010738;28;20096;-84
2023/12/09 09:40:05;;;;;;;16.23;5.10;;;7.80;99.90;;;;;;5027523;28;20036;-82
2023/12/09 09:42:37;;;;;;;15.67;4.70;;;7.90;99.90;;;;;;5035992;28;20496;-83
2023/12/09 09:45:35;;;;;;;15.27;4.27;;;8.00;99.90;;;;;;5038748;28;20107;-86
2023/12/09 09:48:05;;;;;;;14.50;4.50;;;8.00;99.90;;;;;;5013827;28;20049;-85
2023/12/09 09:50:42;;;;;;;18.23;5.07;;;8.10;99.90;;;;;;5038878;28;20442;-83
2023/12/09 09:53:11;;;;;;;11.77;4.40;;;8.00;99.90;;;;;;5045454;28;20590;-82
2023/12/09 09:55:40;;;;;;;15.40;4.90;;;8.00;99.90;;;;;;5054485;28;20185;-79
2023/12/09 09:58:06;;;;;;;14.30;4.20;;;8.00;99.90;;;;;;5034661;28;20063;-85
2023/12/09 10:00:32;;;;;;;14.97;4.40;;;8.00;99.90;;;;;;5039166;28;20492;-83
2023/12/09 10:02:57;;;;;;;16.93;4.50;;;8.00;99.90;;;;;;5008727;28;20036;-83
2023/12/09 10:05:23;;;;;;;16.27;5.20;;;8.00;99.90;;;;;;5059363;28;20086;-82
2023/12/09 10:07:49;;;;;;;12.33;4.60;;;8.00;99.90;;;;;;5019743;28;20051;-84
2023/12/09 10:10:18;;;;;;;16.43;4.40;;;7.90;99.90;;;;;;5033457;28;20753;-80
2023/12/09 10:12:44;;;;;;;13.87;4.53;;;8.00;99.90;;;;;;5022729;28;20484;-82
2023/12/09 10:15:11;;;;;;;13.30;4.47;;;8.00;99.90;;;;;;5039643;28;20139;-82
2023/12/09 10:17:37;;;;;;;13.73;4.73;;;7.90;99.90;;;;;;5052059;28;20495;-83
2023/12/09 10:20:05;;;;;;;10.40;4.60;;;7.90;99.90;;;;;;5032911;28;20109;-79
2023/12/09 10:22:32;;;;;;;14.07;4.43;;;8.00;99.90;;;;;;5035501;28;20045;-81
2023/12/09 10:24:57;;;;;;;14.70;4.60;;;8.00;99.90;;;;;;5035808;28;20036;-87
2023/12/09 10:27:24;;;;;;;12.20;4.67;;;8.00;99.90;;;;;;5025258;28;20047;-83
2023/12/09 10:29:54;;;;;;;12.70;4.50;;;8.10;99.90;;;;;;5030265;28;20449;-81
2023/12/09 10:32:21;;;;;;;13.97;4.20;;;8.10;99.90;;;;;;5008970;28;20037;-84
2023/12/09 10:34:50;;;;;;;15.27;5.13;;;8.20;99.90;;;;;;5013466;28;20037;-82
2023/12/09 10:37:17;;;;;;;11.20;4.90;;;8.20;99.90;;;;;;5032179;28;20041;-83
2023/12/09 10:39:44;;;;;;;15.83;5.40;;;8.30;99.90;;;;;;5039042;28;20040;-84
2023/12/09 10:42:12;;;;;;;13.80;4.43;;;8.20;99.90;;;;;;5055122;28;20037;-84
2023/12/09 10:44:38;;;;;;;13.20;4.20;;;8.30;99.90;;;;;;5054774;28;20036;-82
2023/12/09 10:47:04;;;;;;;12.10;4.10;;;8.30;99.90;;;;;;5071512;28;20048;-83
2023/12/09 10:49:30;;;;;;;11.60;4.17;;;8.30;99.90;;;;;;5059442;28;20032;-82
2023/12/09 10:51:56;;;;;;;13.40;3.97;;;8.30;99.90;;;;;;5055944;28;20075;-83
2023/12/09 10:54:22;;;;;;;11.93;4.47;;;8.30;99.90;;;;;;5034200;28;20072;-82
2023/12/09 10:56:49;;;;;;;12.27;4.53;;;8.30;99.90;;;;;;5066744;28;20373;-83
2023/12/09 10:59:17;;;;;;;10.63;4.17;;;8.30;99.90;;;;;;5031413;28;20120;-83
2023/12/09 11:01:45;;;;;;;14.00;4.43;;;8.40;99.90;;;;;;5048777;28;20044;-82
2023/12/09 11:04:12;;;;;;;14.17;4.23;;;8.30;99.90;;;;;;5035272;28;20128;-79
2023/12/09 11:06:40;;;;;;;9.63;4.40;;;8.30;99.90;;;;;;5024163;28;20039;-84
2023/12/09 11:09:07;;;;;;;16.20;4.57;;;8.40;99.90;;;;;;5039849;28;20785;-83
2023/12/09 11:11:36;;;;;;;11.10;4.33;;;8.40;99.90;;;;;;5031170;28;20043;-86
2023/12/09 11:14:07;;;;;;;11.67;4.73;;;8.40;99.90;;;;;;5033804;28;20503;-82
2023/12/09 11:16:33;;;;;;;13.40;4.23;;;8.50;99.90;;;;;;5036079;28;20053;-83
2023/12/09 11:18:59;;;;;;;12.73;4.57;;;8.50;99.90;;;;;;5016688;28;20048;-83
2023/12/09 11:21:28;;;;;;;12.20;4.03;;;8.40;99.90;;;;;;5031206;28;20040;-81
2023/12/09 11:23:56;;;;;;;12.70;4.17;;;8.40;99.90;;;;;;5049384;28;20435;-80
2023/12/09 11:26:33;;;;;;;8.87;3.83;;;8.50;99.90;;;;;;5033026;28;20044;-84
2023/12/09 11:29:07;;;;;;;12.20;4.07;;;8.50;99.90;;;;;;5036030;28;20127;-85
2023/12/09 11:31:33;;;;;;;10.67;4.20;;;8.40;99.90;;;;;;5033737;28;20045;-85
2023/12/09 11:34:00;;;;;;;9.30;4.03;;;8.40;99.90;;;;;;5032992;28;20049;-84
2023/12/09 11:36:28;;;;;;;13.27;4.47;;;8.40;99.90;;;;;;5015097;28;20486;-86
2023/12/09 11:38:54;;;;;;;11.07;4.00;;;8.40;99.90;;;;;;5047053;28;20106;-87
2023/12/09 11:41:20;;;;;;;11.50;4.07;;;8.40;99.90;;;;;;5016407;28;20044;-88
2023/12/09 11:43:47;;;;;;;12.87;3.97;;;8.50;99.90;;;;;;5030161;28;20555;-87
2023/12/09 11:46:13;;;;;;;10.63;3.77;;;8.50;99.90;;;;;;5019657;28;20216;-87
2023/12/09 11:48:40;;;;;;;11.30;3.33;;;8.50;99.90;;;;;;5025675;28;20044;-80
2023/12/09 11:51:07;;;;;;;13.67;3.37;;;8.50;99.90;;;;;;5026561;28;20032;-85
2023/12/09 11:53:33;;;;;;;12.07;3.90;;;8.60;99.90;;;;;;5042225;28;20036;-83
2023/12/09 11:55:59;;;;;;;10.30;3.53;;;8.60;99.90;;;;;;5046961;28;20044;-83
2023/12/09 11:58:25;;;;;;;7.57;3.33;;;8.60;99.90;;;;;;5038165;28;20124;-83
2023/12/09 12:00:51;;;;;;;10.87;4.53;;;8.60;99.90;;;;;;5049811;28;20451;-83
2023/12/09 12:03:16;;;;;;;9.37;3.27;;;8.60;99.90;;;;;;5004207;28;20048;-84
2023/12/09 12:05:42;;;;;;;13.70;4.00;;;8.60;99.90;;;;;;5053739;28;20094;-82
2023/12/09 12:08:08;;;;;;;8.97;3.57;;;8.60;99.90;;;;;;5022965;28;20048;-83
2023/12/09 12:10:34;;;;;;;9.30;3.20;;;8.60;99.90;;;;;;5063712;28;20040;-85
2023/12/09 12:13:03;;;;;;;12.70;3.23;;;8.60;99.90;;;;;;5037570;28;20051;-85
2023/12/09 12:15:29;;;;;;;8.27;2.93;;;8.60;99.90;;;;;;5035441;28;20070;-83
2023/12/09 12:17:54;;;;;;;11.07;3.37;;;8.50;99.90;;;;;;5016490;28;20071;-84
2023/12/09 12:20:20;;;;;;;10.37;3.50;;;8.50;99.90;;;;;;5049006;28;20049;-84
2023/12/09 12:22:46;;;;;;;11.37;3.03;;;8.50;99.90;;;;;;5017581;28;20407;-83
2023/12/09 12:25:11;;;;;;;11.10;3.60;;;8.50;99.90;;;;;;5035119;28;20395;-87
2023/12/09 12:27:43;;;;;;;10.93;3.23;;;8.50;99.90;;;;;;5037125;28;20070;-85
2023/12/09 12:30:09;;;;;;;11.93;3.13;;;8.60;99.90;;;;;;5036085;28;20045;-88
2023/12/09 12:32:37;;;;;;;8.60;3.10;;;8.60;99.90;;;;;;5049291;28;20033;-83
2023/12/09 12:35:08;;;;;;;10.17;4.07;;;8.50;99.90;;;;;;5036702;28;20076;-85
2023/12/09 12:37:34;;;;;;;7.70;3.30;;;8.50;99.90;;;;;;5042034;28;20048;-85